createdAt,value
2019-05-17T12:13:48.000Z,100
2019-05-17T12:14:56.000Z,100
2019-05-17T12:17:08.000Z,46.7
2019-05-17T12:19:20.000Z,43.1
2019-05-17T12:21:31.000Z,45.3
2019-05-17T12:23:43.000Z,44.5
2019-05-17T12:25:55.000Z,41.3
2019-05-17T12:28:07.000Z,42
2019-05-17T12:30:19.000Z,42.6
2019-05-17T12:32:31.000Z,45.2
2019-05-17T12:34:43.000Z,43.7
2019-05-17T12:35:50.000Z,43.6
2019-05-17T12:36:58.000Z,41.9
2019-05-17T12:39:09.000Z,41.3
2019-05-17T12:41:21.000Z,40.5
2019-05-17T12:43:33.000Z,42.5
2019-05-17T12:45:45.000Z,41.5
2019-05-17T12:47:57.000Z,41.2
2019-05-17T12:50:09.000Z,43
2019-05-17T12:52:21.000Z,39.9
2019-05-17T12:54:33.000Z,38.2
2019-05-17T12:56:44.000Z,40
2019-05-17T12:57:52.000Z,38.5
2019-05-17T12:58:59.000Z,41.6
2019-05-17T13:01:11.000Z,37.9
2019-05-17T13:03:23.000Z,38.7
2019-05-17T13:05:35.000Z,40.2
2019-05-17T13:07:47.000Z,39
2019-05-17T13:09:59.000Z,38.7
2019-05-17T13:12:11.000Z,38.4
2019-05-17T13:14:22.000Z,39.2
2019-05-17T13:16:34.000Z,37.3
2019-05-17T13:18:46.000Z,38.9
2019-05-17T13:19:54.000Z,40.2
2019-05-17T13:21:01.000Z,39.1
2019-05-17T13:23:13.000Z,38.4
2019-05-17T13:25:25.000Z,38.9
2019-05-17T13:27:37.000Z,36.4
2019-05-17T13:29:49.000Z,36.3
2019-05-17T13:32:00.000Z,37
2019-05-17T13:34:12.000Z,38.1
2019-05-17T13:36:24.000Z,37.3
2019-05-17T13:38:36.000Z,35.6
2019-05-17T13:40:48.000Z,35.7
2019-05-17T13:41:55.000Z,36.7
2019-05-17T13:43:03.000Z,37
2019-05-17T13:45:15.000Z,37.1
2019-05-17T13:47:27.000Z,38.2
2019-05-17T13:49:38.000Z,38.4
2019-05-17T13:51:50.000Z,35.6
2019-05-17T13:54:02.000Z,36.3
2019-05-17T13:56:14.000Z,37.7
2019-05-17T13:58:26.000Z,37.3
2019-05-17T14:00:38.000Z,39.2
2019-05-17T14:02:50.000Z,38.5
2019-05-17T14:03:57.000Z,37
2019-05-17T14:05:05.000Z,37.2
2019-05-17T14:07:17.000Z,37.3
2019-05-17T14:09:28.000Z,37.3
2019-05-17T14:11:40.000Z,38.7
2019-05-17T14:13:52.000Z,39
2019-05-17T14:16:04.000Z,37.8
2019-05-17T14:18:16.000Z,37.5
2019-05-17T14:20:28.000Z,35.7
2019-05-17T14:22:40.000Z,36.3
2019-05-17T14:24:52.000Z,35.7
2019-05-17T14:25:59.000Z,33.8
2019-05-17T14:27:06.000Z,33.3
2019-05-17T14:29:18.000Z,35.7
2019-05-17T14:31:30.000Z,36.3
2019-05-17T14:33:42.000Z,35.5
2019-05-17T14:35:54.000Z,35.2
2019-05-17T14:38:06.000Z,35.8
2019-05-17T14:40:18.000Z,34.5
2019-05-17T14:42:30.000Z,35.4
2019-05-17T14:44:41.000Z,33.1
2019-05-17T14:46:53.000Z,34.3
2019-05-17T14:48:01.000Z,33.3
2019-05-17T14:49:08.000Z,32.2
2019-05-17T14:51:20.000Z,33.3
2019-05-17T14:53:32.000Z,32.9
2019-05-17T14:55:44.000Z,33.3
2019-05-17T14:57:56.000Z,34.1
2019-05-17T15:00:08.000Z,32.5
2019-05-17T15:02:19.000Z,32.6
2019-05-17T15:04:31.000Z,33.6
2019-05-17T15:06:43.000Z,32.6
2019-05-17T15:08:55.000Z,32.8
2019-05-17T15:10:03.000Z,32.4
2019-05-17T15:11:10.000Z,32
2019-05-17T15:13:22.000Z,32.2
2019-05-17T15:15:34.000Z,32.6
2019-05-17T15:17:46.000Z,34.2
2019-05-17T15:19:57.000Z,35.4
2019-05-17T15:22:09.000Z,33.7
2019-05-17T15:24:21.000Z,34.2
2019-05-17T15:26:33.000Z,35.1
2019-05-17T15:28:45.000Z,32.2
2019-05-17T15:30:57.000Z,33.6
2019-05-17T15:32:04.000Z,33.7
2019-05-17T15:33:12.000Z,33.8
2019-05-17T15:35:24.000Z,32.8
2019-05-17T15:37:35.000Z,32
2019-05-17T15:44:11.000Z,34.8
2019-05-17T15:46:23.000Z,36
2019-05-17T15:48:35.000Z,34.6
2019-05-17T15:50:47.000Z,34
2019-05-17T15:52:59.000Z,34.2
2019-05-17T15:54:06.000Z,33.9
2019-05-17T15:55:13.000Z,34.2
2019-05-17T15:57:25.000Z,34.2
2019-05-17T15:59:37.000Z,34.6
2019-05-17T16:01:49.000Z,35
2019-05-17T16:04:01.000Z,35.4
2019-05-17T16:06:13.000Z,35.2
2019-05-17T16:08:25.000Z,34.3
2019-05-17T16:10:37.000Z,34.5
2019-05-17T16:12:48.000Z,35.3
2019-05-17T16:15:00.000Z,34.7
2019-05-17T16:16:08.000Z,34.3
2019-05-17T16:17:15.000Z,33.5
2019-05-17T16:19:27.000Z,33.3
2019-05-17T16:21:39.000Z,35.3
2019-05-17T16:23:51.000Z,35.1
2019-05-17T16:26:03.000Z,34.6
2019-05-17T16:28:15.000Z,34.2
2019-05-17T16:30:26.000Z,35
2019-05-17T16:32:38.000Z,34.3
2019-05-17T16:34:50.000Z,34.5
2019-05-17T16:37:02.000Z,35
2019-05-17T16:38:10.000Z,35.4
2019-05-17T16:39:17.000Z,35.4
2019-05-17T16:41:29.000Z,34.9
2019-05-17T16:43:41.000Z,34.5
2019-05-17T16:45:53.000Z,34.9
2019-05-17T16:48:05.000Z,34.9
2019-05-17T16:50:16.000Z,34.3
2019-05-17T16:52:28.000Z,34.3
2019-05-17T16:54:40.000Z,34
2019-05-17T16:56:52.000Z,33.9
2019-05-17T16:59:04.000Z,35.2
2019-05-17T17:00:11.000Z,35.2
2019-05-17T17:01:19.000Z,35.7
2019-05-17T17:03:31.000Z,36.2
2019-05-17T17:05:43.000Z,37.1
2019-05-17T17:07:54.000Z,37.1
2019-05-17T17:10:06.000Z,37.7
2019-05-17T17:12:18.000Z,37.9
2019-05-17T17:14:30.000Z,37.8
2019-05-17T17:16:42.000Z,37.7
2019-05-17T17:18:54.000Z,37.6
2019-05-17T17:21:06.000Z,37.2
2019-05-17T17:22:13.000Z,36.6
2019-05-17T17:23:21.000Z,37
2019-05-17T17:25:32.000Z,100
2019-05-17T17:27:44.000Z,36.5
2019-05-17T17:29:56.000Z,37.6
2019-05-17T17:32:08.000Z,37.7
2019-05-17T17:34:20.000Z,38.2
2019-05-17T17:36:32.000Z,38.2
2019-05-17T17:38:44.000Z,38.3
2019-05-17T17:40:56.000Z,38.5
2019-05-17T17:43:07.000Z,38.6
2019-05-17T17:44:15.000Z,38.5
2019-05-17T17:45:22.000Z,39
2019-05-17T17:47:34.000Z,39
2019-05-17T17:49:46.000Z,39.3
2019-05-17T17:51:58.000Z,39.2
2019-05-17T17:54:10.000Z,38.8
2019-05-17T17:56:22.000Z,38.6
2019-05-17T17:58:34.000Z,38.5
2019-05-17T18:00:45.000Z,38.5
2019-05-17T18:02:57.000Z,38.9
2019-05-17T18:05:09.000Z,38.6
2019-05-17T18:06:17.000Z,39.7
2019-05-17T18:07:24.000Z,39.4
2019-05-17T18:09:36.000Z,39.7
2019-05-17T18:11:48.000Z,39.4
2019-05-17T18:14:00.000Z,39
2019-05-17T18:16:12.000Z,39.3
2019-05-17T18:18:23.000Z,38.7
2019-05-17T18:20:35.000Z,39.7
2019-05-17T18:22:47.000Z,39.7
2019-05-17T18:24:59.000Z,39.7
2019-05-17T18:27:11.000Z,39.2
2019-05-17T18:28:18.000Z,39.1
2019-05-17T18:29:26.000Z,39.2
2019-05-17T18:31:38.000Z,39
2019-05-17T18:33:50.000Z,38.9
2019-05-17T18:36:01.000Z,39.3
2019-05-17T18:38:13.000Z,38.7
2019-05-17T18:40:25.000Z,39.2
2019-05-17T18:42:37.000Z,39.5
2019-05-17T18:44:49.000Z,39.3
2019-05-17T18:47:01.000Z,39.3
2019-05-17T18:49:13.000Z,38.9
2019-05-17T18:50:20.000Z,38.9
2019-05-17T18:51:28.000Z,39.4
2019-05-17T18:53:39.000Z,39.1
2019-05-17T18:55:51.000Z,38.8
2019-05-17T18:58:03.000Z,38.6
2019-05-17T19:00:15.000Z,38.8
2019-05-17T19:02:27.000Z,38.5
2019-05-17T19:04:39.000Z,38.9
2019-05-17T19:06:51.000Z,39.4
2019-05-17T19:09:03.000Z,39.7
2019-05-17T19:11:15.000Z,39.5
2019-05-17T19:12:22.000Z,38.9
2019-05-17T19:13:29.000Z,39.3
2019-05-17T19:15:41.000Z,39.1
2019-05-17T19:17:53.000Z,39.5
2019-05-17T19:20:05.000Z,40.3
2019-05-17T19:22:17.000Z,39.8
2019-05-17T19:24:29.000Z,39.5
2019-05-17T19:26:41.000Z,40.4
2019-05-17T19:28:52.000Z,41
2019-05-17T19:31:04.000Z,40.8
2019-05-17T19:33:16.000Z,40.6
2019-05-17T19:34:24.000Z,40.6
2019-05-17T19:35:31.000Z,41.5
2019-05-17T19:37:43.000Z,42.1
2019-05-17T19:39:55.000Z,41.4
2019-05-17T19:42:07.000Z,41.6
2019-05-17T19:44:19.000Z,44.1
2019-05-17T19:46:30.000Z,46
2019-05-17T19:48:42.000Z,45.4
2019-05-17T19:50:54.000Z,46.6
2019-05-17T19:53:06.000Z,47.4
2019-05-17T19:55:18.000Z,47.6
2019-05-17T19:56:25.000Z,48
2019-05-17T19:57:33.000Z,48.6
2019-05-17T19:59:45.000Z,48.8
2019-05-17T20:01:57.000Z,49.3
2019-05-17T20:04:09.000Z,50
2019-05-17T20:06:20.000Z,51.8
2019-05-17T20:08:32.000Z,52.5
2019-05-17T20:10:44.000Z,53.9
2019-05-17T20:12:56.000Z,54.6
2019-05-17T20:15:08.000Z,55.2
2019-05-17T20:17:20.000Z,54
2019-05-17T20:18:27.000Z,54.5
2019-05-17T20:19:35.000Z,54.2
2019-05-17T20:21:47.000Z,54.3
2019-05-17T20:23:58.000Z,53.6
2019-05-17T20:26:10.000Z,53.1
2019-05-17T20:28:22.000Z,53.9
2019-05-17T20:30:34.000Z,55.5
2019-05-17T20:32:46.000Z,54.8
2019-05-17T20:34:58.000Z,55.6
2019-05-17T20:37:10.000Z,56.4
2019-05-17T20:39:22.000Z,56.1
2019-05-17T20:40:29.000Z,55.6
2019-05-17T20:41:36.000Z,55.2
2019-05-17T20:43:48.000Z,54.8
2019-05-17T20:46:00.000Z,55.3
2019-05-17T20:48:12.000Z,54.5
2019-05-17T20:50:24.000Z,54.1
2019-05-17T20:52:36.000Z,53.1
2019-05-17T20:54:48.000Z,53.9
2019-05-17T20:57:00.000Z,54.4
2019-05-17T20:59:11.000Z,55.4
2019-05-17T21:01:23.000Z,55.2
2019-05-17T21:02:31.000Z,56.2
2019-05-17T21:04:10.000Z,56.4
2019-05-17T21:06:22.000Z,56.1
2019-05-17T21:08:34.000Z,56.1
2019-05-17T21:10:46.000Z,55.6
2019-05-17T21:12:58.000Z,55.3
2019-05-17T21:15:10.000Z,54.2
2019-05-17T21:17:22.000Z,53.1
2019-05-17T21:19:33.000Z,52.7
2019-05-17T21:21:45.000Z,52.7
2019-05-17T21:23:57.000Z,53.2
2019-05-17T21:25:05.000Z,53
2019-05-17T21:26:12.000Z,53.2
2019-05-17T21:28:24.000Z,54.6
2019-05-17T21:30:36.000Z,57
2019-05-17T21:32:48.000Z,60.9
2019-05-17T21:35:00.000Z,64.5
2019-05-17T21:37:11.000Z,66.6
2019-05-17T21:39:23.000Z,65.3
2019-05-17T21:41:35.000Z,62.7
2019-05-17T21:43:47.000Z,59.5
2019-05-17T21:45:59.000Z,62.3
2019-05-17T21:47:06.000Z,62.6
2019-05-17T21:48:14.000Z,62.9
2019-05-17T21:50:26.000Z,62.8
2019-05-17T21:52:38.000Z,63.1
2019-05-17T21:54:49.000Z,63.4
2019-05-17T21:57:01.000Z,63.8
2019-05-17T21:59:13.000Z,64.3
2019-05-17T22:01:25.000Z,67.5
2019-05-17T22:03:37.000Z,65.8
2019-05-17T22:05:49.000Z,65.8
2019-05-17T22:08:01.000Z,64.9
2019-05-17T22:09:08.000Z,64.5
2019-05-17T22:10:16.000Z,64.4
2019-05-17T22:12:27.000Z,63.7
2019-05-17T22:14:39.000Z,63.6
2019-05-17T22:16:51.000Z,62.9
2019-05-17T22:19:03.000Z,64.5
2019-05-17T22:21:15.000Z,63.8
2019-05-17T22:23:27.000Z,65.1
2019-05-17T22:25:39.000Z,65.5
2019-05-17T22:27:51.000Z,64.5
2019-05-17T22:30:02.000Z,65
2019-05-17T22:31:10.000Z,64.3
2019-05-17T22:32:17.000Z,64.6
2019-05-17T22:34:29.000Z,65
2019-05-17T22:36:41.000Z,66
2019-05-17T22:38:53.000Z,66.4
2019-05-17T22:41:05.000Z,66.5
2019-05-17T22:43:17.000Z,66.5
2019-05-17T22:45:29.000Z,68.6
2019-05-17T22:47:40.000Z,70.5
2019-05-17T22:49:52.000Z,71.9
2019-05-17T22:52:04.000Z,69.6
2019-05-17T22:53:12.000Z,68
2019-05-17T22:54:19.000Z,68.3
2019-05-17T22:56:31.000Z,67.7
2019-05-17T22:58:43.000Z,66.8
2019-05-17T23:00:55.000Z,66.2
2019-05-17T23:03:07.000Z,66.3
2019-05-17T23:05:18.000Z,68.2
2019-05-17T23:07:30.000Z,68.3
2019-05-17T23:09:42.000Z,66.9
2019-05-17T23:11:54.000Z,66.9
2019-05-17T23:14:06.000Z,65.2
2019-05-17T23:15:13.000Z,64.5
2019-05-17T23:16:21.000Z,64.3
2019-05-17T23:18:33.000Z,64.9
2019-05-17T23:20:45.105Z,65.9
2019-05-17T23:22:56.000Z,66.1
2019-05-17T23:25:08.000Z,66.1
2019-05-17T23:27:20.000Z,67.3
2019-05-17T23:29:32.000Z,65.8
2019-05-17T23:31:44.000Z,65.4
2019-05-17T23:33:56.000Z,66.6
2019-05-17T23:36:08.000Z,66.1
2019-05-17T23:37:15.000Z,65.4
2019-05-17T23:38:23.000Z,65
2019-05-17T23:40:34.000Z,65.1
2019-05-17T23:42:46.000Z,65.1
2019-05-17T23:44:58.000Z,65.5
2019-05-17T23:47:10.000Z,65.6
2019-05-17T23:49:22.000Z,65
2019-05-17T23:51:34.000Z,65.6
2019-05-17T23:53:46.000Z,65.9
2019-05-17T23:55:58.000Z,67.8
2019-05-17T23:58:10.000Z,69.5
2019-05-17T23:59:17.000Z,72
